sensor_id;sensor_type;location;lat;lon;timestamp;P1;P2;P0
62846;PMS5003;49477;35.676;139.586;2023-07-28T00:01:05;27;23;
62846;PMS5003;49477;35.676;139.586;2023-07-28T00:03:35;22;22;
62846;PMS5003;49477;35.676;139.586;2023-07-28T00:06:04;26;20;
62846;PMS5003;49477;35.676;139.586;2023-07-28T00:08:34;30;26;
62846;PMS5003;49477;35.676;139.586;2023-07-28T00:11:03;29;25;
62846;PMS5003;49477;35.676;139.586;2023-07-28T00:13:35;24;23;
62846;PMS5003;49477;35.676;139.586;2023-07-28T00:16:05;23;22;
62846;PMS5003;49477;35.676;139.586;2023-07-28T00:18:35;23;23;
62846;PMS5003;49477;35.676;139.586;2023-07-28T00:21:05;22;22;
62846;PMS5003;49477;35.676;139.586;2023-07-28T00:23:34;24;22;
62846;PMS5003;49477;35.676;139.586;2023-07-28T00:26:04;27;25;
62846;PMS5003;49477;35.676;139.586;2023-07-28T00:28:40;22;21;
62846;PMS5003;49477;35.676;139.586;2023-07-28T00:31:10;25;25;
62846;PMS5003;49477;35.676;139.586;2023-07-28T00:33:39;26;25;
62846;PMS5003;49477;35.676;139.586;2023-07-28T00:36:14;30;26;
62846;PMS5003;49477;35.676;139.586;2023-07-28T00:38:45;25;25;
62846;PMS5003;49477;35.676;139.586;2023-07-28T00:41:16;24;22;
62846;PMS5003;49477;35.676;139.586;2023-07-28T00:43:45;31;31;
62846;PMS5003;49477;35.676;139.586;2023-07-28T00:46:16;29;29;
62846;PMS5003;49477;35.676;139.586;2023-07-28T00:48:47;30;28;
62846;PMS5003;49477;35.676;139.586;2023-07-28T00:51:18;27;25;
62846;PMS5003;49477;35.676;139.586;2023-07-28T00:53:51;26;25;
62846;PMS5003;49477;35.676;139.586;2023-07-28T00:56:23;26;25;
62846;PMS5003;49477;35.676;139.586;2023-07-28T00:58:54;26;24;
62846;PMS5003;49477;35.676;139.586;2023-07-28T01:01:24;26;25;
62846;PMS5003;49477;35.676;139.586;2023-07-28T01:03:53;26;26;
62846;PMS5003;49477;35.676;139.586;2023-07-28T01:06:26;23;23;
62846;PMS5003;49477;35.676;139.586;2023-07-28T01:09:05;26;25;
62846;PMS5003;49477;35.676;139.586;2023-07-28T01:11:45;23;22;
62846;PMS5003;49477;35.676;139.586;2023-07-28T01:14:21;25;25;
62846;PMS5003;49477;35.676;139.586;2023-07-28T01:16:51;21;21;
62846;PMS5003;49477;35.676;139.586;2023-07-28T01:19:21;23;23;
62846;PMS5003;49477;35.676;139.586;2023-07-28T01:21:53;21;21;
62846;PMS5003;49477;35.676;139.586;2023-07-28T01:24:34;23;23;
62846;PMS5003;49477;35.676;139.586;2023-07-28T01:27:14;20;20;
62846;PMS5003;49477;35.676;139.586;2023-07-28T01:29:44;20;20;
62846;PMS5003;49477;35.676;139.586;2023-07-28T01:32:14;24;21;
62846;PMS5003;49477;35.676;139.586;2023-07-28T01:34:45;19;18;
62846;PMS5003;49477;35.676;139.586;2023-07-28T01:37:14;18;18;
62846;PMS5003;49477;35.676;139.586;2023-07-28T01:39:43;22;19;
62846;PMS5003;49477;35.676;139.586;2023-07-28T01:42:13;20;19;
62846;PMS5003;49477;35.676;139.586;2023-07-28T01:44:42;21;21;
62846;PMS5003;49477;35.676;139.586;2023-07-28T01:47:17;19;17;
62846;PMS5003;49477;35.676;139.586;2023-07-28T01:49:46;19;18;
62846;PMS5003;49477;35.676;139.586;2023-07-28T01:52:15;20;19;
62846;PMS5003;49477;35.676;139.586;2023-07-28T01:54:45;19;18;
62846;PMS5003;49477;35.676;139.586;2023-07-28T01:57:14;19;17;
62846;PMS5003;49477;35.676;139.586;2023-07-28T01:59:44;20;19;
62846;PMS5003;49477;35.676;139.586;2023-07-28T02:02:13;17;17;
62846;PMS5003;49477;35.676;139.586;2023-07-28T02:04:43;18;17;
62846;PMS5003;49477;35.676;139.586;2023-07-28T02:07:11;17;17;
62846;PMS5003;49477;35.676;139.586;2023-07-28T02:09:40;16;16;
62846;PMS5003;49477;35.676;139.586;2023-07-28T02:12:16;16;16;
62846;PMS5003;49477;35.676;139.586;2023-07-28T02:14:45;14;14;
62846;PMS5003;49477;35.676;139.586;2023-07-28T02:17:14;16;14;
62846;PMS5003;49477;35.676;139.586;2023-07-28T02:19:43;16;14;
62846;PMS5003;49477;35.676;139.586;2023-07-28T02:22:13;18;15;
62846;PMS5003;49477;35.676;139.586;2023-07-28T02:24:42;14;14;
62846;PMS5003;49477;35.676;139.586;2023-07-28T02:27:11;16;14;
62846;PMS5003;49477;35.676;139.586;2023-07-28T02:29:41;14;12;
62846;PMS5003;49477;35.676;139.586;2023-07-28T02:32:11;12;12;
62846;PMS5003;49477;35.676;139.586;2023-07-28T02:34:40;14;12;
62846;PMS5003;49477;35.676;139.586;2023-07-28T02:37:09;14;14;
62846;PMS5003;49477;35.676;139.586;2023-07-28T02:39:39;15;13;
62846;PMS5003;49477;35.676;139.586;2023-07-28T02:42:09;16;15;
62846;PMS5003;49477;35.676;139.586;2023-07-28T02:44:39;12;12;
62846;PMS5003;49477;35.676;139.586;2023-07-28T02:47:08;12;11;
62846;PMS5003;49477;35.676;139.586;2023-07-28T02:49:40;12;11;
62846;PMS5003;49477;35.676;139.586;2023-07-28T02:52:10;14;14;
62846;PMS5003;49477;35.676;139.586;2023-07-28T02:54:39;11;11;
62846;PMS5003;49477;35.676;139.586;2023-07-28T02:57:08;14;14;
62846;PMS5003;49477;35.676;139.586;2023-07-28T02:59:38;17;14;
62846;PMS5003;49477;35.676;139.586;2023-07-28T03:02:08;14;14;
62846;PMS5003;49477;35.676;139.586;2023-07-28T03:04:39;13;12;
62846;PMS5003;49477;35.676;139.586;2023-07-28T03:07:08;14;13;
62846;PMS5003;49477;35.676;139.586;2023-07-28T03:09:38;13;13;
62846;PMS5003;49477;35.676;139.586;2023-07-28T03:12:08;14;14;
62846;PMS5003;49477;35.676;139.586;2023-07-28T03:14:38;11;11;
62846;PMS5003;49477;35.676;139.586;2023-07-28T03:17:07;10;10;
62846;PMS5003;49477;35.676;139.586;2023-07-28T03:19:37;14;13;
62846;PMS5003;49477;35.676;139.586;2023-07-28T03:22:07;11;9;
62846;PMS5003;49477;35.676;139.586;2023-07-28T03:24:36;13;13;
62846;PMS5003;49477;35.676;139.586;2023-07-28T03:27:06;13;13;
62846;PMS5003;49477;35.676;139.586;2023-07-28T03:29:35;13;13;
62846;PMS5003;49477;35.676;139.586;2023-07-28T03:32:05;11;11;
62846;PMS5003;49477;35.676;139.586;2023-07-28T03:34:35;12;11;
62846;PMS5003;49477;35.676;139.586;2023-07-28T03:37:06;15;11;
62846;PMS5003;49477;35.676;139.586;2023-07-28T03:39:35;12;12;
62846;PMS5003;49477;35.676;139.586;2023-07-28T03:42:05;14;11;
62846;PMS5003;49477;35.676;139.586;2023-07-28T03:44:34;11;11;
62846;PMS5003;49477;35.676;139.586;2023-07-28T03:47:05;9;9;
62846;PMS5003;49477;35.676;139.586;2023-07-28T03:49:34;11;11;
62846;PMS5003;49477;35.676;139.586;2023-07-28T03:52:04;11;10;
62846;PMS5003;49477;35.676;139.586;2023-07-28T03:54:33;8;7;
62846;PMS5003;49477;35.676;139.586;2023-07-28T03:57:02;12;12;
62846;PMS5003;49477;35.676;139.586;2023-07-28T03:59:33;12;11;
62846;PMS5003;49477;35.676;139.586;2023-07-28T04:02:03;10;10;
62846;PMS5003;49477;35.676;139.586;2023-07-28T04:04:32;10;10;
62846;PMS5003;49477;35.676;139.586;2023-07-28T04:07:02;9;9;
62846;PMS5003;49477;35.676;139.586;2023-07-28T04:09:32;11;11;
62846;PMS5003;49477;35.676;139.586;2023-07-28T04:12:01;9;9;
62846;PMS5003;49477;35.676;139.586;2023-07-28T04:14:30;8;8;
62846;PMS5003;49477;35.676;139.586;2023-07-28T04:17:00;9;9;
62846;PMS5003;49477;35.676;139.586;2023-07-28T04:19:29;10;9;
62846;PMS5003;49477;35.676;139.586;2023-07-28T04:21:59;8;8;
62846;PMS5003;49477;35.676;139.586;2023-07-28T04:24:29;8;8;
62846;PMS5003;49477;35.676;139.586;2023-07-28T04:26:59;12;11;
62846;PMS5003;49477;35.676;139.586;2023-07-28T04:29:28;11;10;
62846;PMS5003;49477;35.676;139.586;2023-07-28T04:31:58;8;8;
62846;PMS5003;49477;35.676;139.586;2023-07-28T04:34:28;8;8;
62846;PMS5003;49477;35.676;139.586;2023-07-28T04:37:00;7;7;
62846;PMS5003;49477;35.676;139.586;2023-07-28T04:39:29;7;7;
62846;PMS5003;49477;35.676;139.586;2023-07-28T04:41:59;8;8;
62846;PMS5003;49477;35.676;139.586;2023-07-28T04:44:29;8;8;
62846;PMS5003;49477;35.676;139.586;2023-07-28T04:46:58;9;9;
62846;PMS5003;49477;35.676;139.586;2023-07-28T04:49:28;11;8;
62846;PMS5003;49477;35.676;139.586;2023-07-28T04:51:57;9;9;
62846;PMS5003;49477;35.676;139.586;2023-07-28T04:54:26;9;9;
62846;PMS5003;49477;35.676;139.586;2023-07-28T04:56:56;10;9;
62846;PMS5003;49477;35.676;139.586;2023-07-28T04:59:26;7;7;
62846;PMS5003;49477;35.676;139.586;2023-07-28T05:01:57;8;8;
62846;PMS5003;49477;35.676;139.586;2023-07-28T05:04:26;7;7;
62846;PMS5003;49477;35.676;139.586;2023-07-28T05:06:55;8;7;
62846;PMS5003;49477;35.676;139.586;2023-07-28T05:09:25;9;8;
62846;PMS5003;49477;35.676;139.586;2023-07-28T05:11:55;9;9;
62846;PMS5003;49477;35.676;139.586;2023-07-28T05:14:25;7;7;
62846;PMS5003;49477;35.676;139.586;2023-07-28T05:16:55;10;10;
62846;PMS5003;49477;35.676;139.586;2023-07-28T05:19:24;8;7;
62846;PMS5003;49477;35.676;139.586;2023-07-28T05:22:00;7;7;
62846;PMS5003;49477;35.676;139.586;2023-07-28T05:24:29;9;9;
62846;PMS5003;49477;35.676;139.586;2023-07-28T05:27:00;7;6;
62846;PMS5003;49477;35.676;139.586;2023-07-28T05:29:29;9;9;
62846;PMS5003;49477;35.676;139.586;2023-07-28T05:32:06;8;8;
62846;PMS5003;49477;35.676;139.586;2023-07-28T05:34:36;11;11;
62846;PMS5003;49477;35.676;139.586;2023-07-28T05:37:05;7;7;
62846;PMS5003;49477;35.676;139.586;2023-07-28T05:39:35;7;7;
62846;PMS5003;49477;35.676;139.586;2023-07-28T05:42:04;9;8;
62846;PMS5003;49477;35.676;139.586;2023-07-28T05:44:35;8;8;
62846;PMS5003;49477;35.676;139.586;2023-07-28T05:47:04;9;7;
62846;PMS5003;49477;35.676;139.586;2023-07-28T05:49:34;7;7;
62846;PMS5003;49477;35.676;139.586;2023-07-28T05:52:08;7;7;
62846;PMS5003;49477;35.676;139.586;2023-07-28T05:54:38;8;8;
62846;PMS5003;49477;35.676;139.586;2023-07-28T05:57:08;6;6;
62846;PMS5003;49477;35.676;139.586;2023-07-28T05:59:37;9;9;
62846;PMS5003;49477;35.676;139.586;2023-07-28T06:02:07;10;10;
62846;PMS5003;49477;35.676;139.586;2023-07-28T06:04:36;9;8;
62846;PMS5003;49477;35.676;139.586;2023-07-28T06:07:06;6;6;
62846;PMS5003;49477;35.676;139.586;2023-07-28T06:09:37;9;7;
62846;PMS5003;49477;35.676;139.586;2023-07-28T06:12:07;10;7;
62846;PMS5003;49477;35.676;139.586;2023-07-28T06:14:36;9;7;
62846;PMS5003;49477;35.676;139.586;2023-07-28T06:17:06;8;8;
62846;PMS5003;49477;35.676;139.586;2023-07-28T06:19:35;9;7;
62846;PMS5003;49477;35.676;139.586;2023-07-28T06:22:05;6;6;
62846;PMS5003;49477;35.676;139.586;2023-07-28T06:24:35;6;6;
62846;PMS5003;49477;35.676;139.586;2023-07-28T06:27:05;7;7;
62846;PMS5003;49477;35.676;139.586;2023-07-28T06:29:34;10;10;
62846;PMS5003;49477;35.676;139.586;2023-07-28T06:32:04;7;7;
62846;PMS5003;49477;35.676;139.586;2023-07-28T06:34:33;7;7;
62846;PMS5003;49477;35.676;139.586;2023-07-28T06:37:03;7;7;
62846;PMS5003;49477;35.676;139.586;2023-07-28T06:39:32;7;7;
62846;PMS5003;49477;35.676;139.586;2023-07-28T06:42:08;7;7;
62846;PMS5003;49477;35.676;139.586;2023-07-28T06:44:37;8;8;
62846;PMS5003;49477;35.676;139.586;2023-07-28T06:47:07;4;4;
62846;PMS5003;49477;35.676;139.586;2023-07-28T06:49:39;9;7;
62846;PMS5003;49477;35.676;139.586;2023-07-28T06:52:09;7;7;
62846;PMS5003;49477;35.676;139.586;2023-07-28T06:54:39;6;6;
62846;PMS5003;49477;35.676;139.586;2023-07-28T06:57:08;8;7;
62846;PMS5003;49477;35.676;139.586;2023-07-28T06:59:38;7;7;
62846;PMS5003;49477;35.676;139.586;2023-07-28T07:02:07;7;7;
62846;PMS5003;49477;35.676;139.586;2023-07-28T07:04:42;7;7;
62846;PMS5003;49477;35.676;139.586;2023-07-28T07:07:12;6;6;
62846;PMS5003;49477;35.676;139.586;2023-07-28T07:09:41;5;5;
62846;PMS5003;49477;35.676;139.586;2023-07-28T07:12:11;8;7;
62846;PMS5003;49477;35.676;139.586;2023-07-28T07:14:41;7;6;
62846;PMS5003;49477;35.676;139.586;2023-07-28T07:17:10;9;9;
62846;PMS5003;49477;35.676;139.586;2023-07-28T07:19:40;8;8;
62846;PMS5003;49477;35.676;139.586;2023-07-28T07:22:09;7;7;
62846;PMS5003;49477;35.676;139.586;2023-07-28T07:24:38;7;7;
62846;PMS5003;49477;35.676;139.586;2023-07-28T07:27:09;7;5;
62846;PMS5003;49477;35.676;139.586;2023-07-28T07:29:39;8;8;
62846;PMS5003;49477;35.676;139.586;2023-07-28T07:32:09;8;8;
62846;PMS5003;49477;35.676;139.586;2023-07-28T07:34:38;6;6;
62846;PMS5003;49477;35.676;139.586;2023-07-28T07:37:08;8;7;
62846;PMS5003;49477;35.676;139.586;2023-07-28T07:39:38;7;7;
62846;PMS5003;49477;35.676;139.586;2023-07-28T07:42:12;7;7;
62846;PMS5003;49477;35.676;139.586;2023-07-28T07:44:41;5;5;
62846;PMS5003;49477;35.676;139.586;2023-07-28T07:47:12;8;8;
62846;PMS5003;49477;35.676;139.586;2023-07-28T07:49:42;6;6;
62846;PMS5003;49477;35.676;139.586;2023-07-28T07:52:11;8;8;
62846;PMS5003;49477;35.676;139.586;2023-07-28T07:54:41;6;6;
62846;PMS5003;49477;35.676;139.586;2023-07-28T07:57:10;6;6;
62846;PMS5003;49477;35.676;139.586;2023-07-28T07:59:40;8;8;
62846;PMS5003;49477;35.676;139.586;2023-07-28T08:02:10;7;6;
62846;PMS5003;49477;35.676;139.586;2023-07-28T08:04:39;6;6;
62846;PMS5003;49477;35.676;139.586;2023-07-28T08:07:09;5;5;
62846;PMS5003;49477;35.676;139.586;2023-07-28T08:09:40;7;6;
62846;PMS5003;49477;35.676;139.586;2023-07-28T08:12:10;6;6;
62846;PMS5003;49477;35.676;139.586;2023-07-28T08:14:40;5;5;
62846;PMS5003;49477;35.676;139.586;2023-07-28T08:17:10;5;4;
62846;PMS5003;49477;35.676;139.586;2023-07-28T08:19:39;4;4;
62846;PMS5003;49477;35.676;139.586;2023-07-28T08:22:09;3;3;
62846;PMS5003;49477;35.676;139.586;2023-07-28T08:24:38;6;6;
62846;PMS5003;49477;35.676;139.586;2023-07-28T08:27:08;6;6;
62846;PMS5003;49477;35.676;139.586;2023-07-28T08:29:38;2;2;
62846;PMS5003;49477;35.676;139.586;2023-07-28T08:32:08;4;4;
62846;PMS5003;49477;35.676;139.586;2023-07-28T08:34:37;4;4;
62846;PMS5003;49477;35.676;139.586;2023-07-28T08:37:07;6;4;
62846;PMS5003;49477;35.676;139.586;2023-07-28T08:39:36;4;4;
62846;PMS5003;49477;35.676;139.586;2023-07-28T08:42:06;4;4;
62846;PMS5003;49477;35.676;139.586;2023-07-28T08:44:35;4;4;
62846;PMS5003;49477;35.676;139.586;2023-07-28T08:47:05;3;3;
62846;PMS5003;49477;35.676;139.586;2023-07-28T08:49:34;5;4;
62846;PMS5003;49477;35.676;139.586;2023-07-28T08:52:05;4;4;
62846;PMS5003;49477;35.676;139.586;2023-07-28T08:54:34;5;5;
62846;PMS5003;49477;35.676;139.586;2023-07-28T08:57:04;4;4;
62846;PMS5003;49477;35.676;139.586;2023-07-28T08:59:34;2;2;
62846;PMS5003;49477;35.676;139.586;2023-07-28T09:02:04;4;4;
62846;PMS5003;49477;35.676;139.586;2023-07-28T09:04:36;3;3;
62846;PMS5003;49477;35.676;139.586;2023-07-28T09:07:06;4;4;
62846;PMS5003;49477;35.676;139.586;2023-07-28T09:09:35;3;3;
62846;PMS5003;49477;35.676;139.586;2023-07-28T09:12:05;5;3;
62846;PMS5003;49477;35.676;139.586;2023-07-28T09:14:35;3;3;
62846;PMS5003;49477;35.676;139.586;2023-07-28T09:17:07;2;2;
62846;PMS5003;49477;35.676;139.586;2023-07-28T09:19:53;3;3;
62846;PMS5003;49477;35.676;139.586;2023-07-28T09:22:23;4;4;
62846;PMS5003;49477;35.676;139.586;2023-07-28T09:24:54;3;3;
62846;PMS5003;49477;35.676;139.586;2023-07-28T09:27:25;3;3;
62846;PMS5003;49477;35.676;139.586;2023-07-28T09:29:55;5;4;
62846;PMS5003;49477;35.676;139.586;2023-07-28T09:32:28;4;4;
62846;PMS5003;49477;35.676;139.586;2023-07-28T09:35:06;3;3;
62846;PMS5003;49477;35.676;139.586;2023-07-28T09:37:38;4;3;
62846;PMS5003;49477;35.676;139.586;2023-07-28T09:40:09;3;3;
62846;PMS5003;49477;35.676;139.586;2023-07-28T09:42:40;5;5;
62846;PMS5003;49477;35.676;139.586;2023-07-28T09:45:11;3;3;
62846;PMS5003;49477;35.676;139.586;2023-07-28T09:47:41;3;3;
62846;PMS5003;49477;35.676;139.586;2023-07-28T09:50:14;3;3;
62846;PMS5003;49477;35.676;139.586;2023-07-28T09:52:46;3;3;
62846;PMS5003;49477;35.676;139.586;2023-07-28T09:55:19;6;4;
62846;PMS5003;49477;35.676;139.586;2023-07-28T09:57:50;4;4;
62846;PMS5003;49477;35.676;139.586;2023-07-28T10:00:22;2;2;
62846;PMS5003;49477;35.676;139.586;2023-07-28T10:02:53;4;4;
62846;PMS5003;49477;35.676;139.586;2023-07-28T10:05:24;5;4;
62846;PMS5003;49477;35.676;139.586;2023-07-28T10:07:53;4;4;
62846;PMS5003;49477;35.676;139.586;2023-07-28T10:10:23;6;4;
62846;PMS5003;49477;35.676;139.586;2023-07-28T10:12:53;3;3;
62846;PMS5003;49477;35.676;139.586;2023-07-28T10:15:28;5;4;
62846;PMS5003;49477;35.676;139.586;2023-07-28T10:17:59;4;4;
62846;PMS5003;49477;35.676;139.586;2023-07-28T10:20:29;3;3;
62846;PMS5003;49477;35.676;139.586;2023-07-28T10:23:03;5;5;
62846;PMS5003;49477;35.676;139.586;2023-07-28T10:25:35;4;4;
62846;PMS5003;49477;35.676;139.586;2023-07-28T10:28:05;4;3;
62846;PMS5003;49477;35.676;139.586;2023-07-28T10:30:53;3;3;
62846;PMS5003;49477;35.676;139.586;2023-07-28T10:33:30;5;5;
62846;PMS5003;49477;35.676;139.586;2023-07-28T10:36:11;4;4;
62846;PMS5003;49477;35.676;139.586;2023-07-28T10:38:41;3;3;
62846;PMS5003;49477;35.676;139.586;2023-07-28T10:41:12;4;4;
62846;PMS5003;49477;35.676;139.586;2023-07-28T10:43:43;5;5;
62846;PMS5003;49477;35.676;139.586;2023-07-28T10:46:15;6;6;
62846;PMS5003;49477;35.676;139.586;2023-07-28T10:48:47;3;3;
62846;PMS5003;49477;35.676;139.586;2023-07-28T10:51:25;5;5;
62846;PMS5003;49477;35.676;139.586;2023-07-28T10:53:55;5;5;
62846;PMS5003;49477;35.676;139.586;2023-07-28T10:56:25;2;2;
62846;PMS5003;49477;35.676;139.586;2023-07-28T10:58:57;5;5;
62846;PMS5003;49477;35.676;139.586;2023-07-28T11:01:32;4;4;
62846;PMS5003;49477;35.676;139.586;2023-07-28T11:04:10;7;5;
62846;PMS5003;49477;35.676;139.586;2023-07-28T11:06:42;5;4;
62846;PMS5003;49477;35.676;139.586;2023-07-28T11:09:12;5;4;
62846;PMS5003;49477;35.676;139.586;2023-07-28T11:11:44;4;4;
62846;PMS5003;49477;35.676;139.586;2023-07-28T11:14:15;6;4;
62846;PMS5003;49477;35.676;139.586;2023-07-28T11:16:45;3;3;
62846;PMS5003;49477;35.676;139.586;2023-07-28T11:19:15;6;4;
62846;PMS5003;49477;35.676;139.586;2023-07-28T11:21:45;6;5;
62846;PMS5003;49477;35.676;139.586;2023-07-28T11:24:17;5;5;
62846;PMS5003;49477;35.676;139.586;2023-07-28T11:26:47;3;3;
62846;PMS5003;49477;35.676;139.586;2023-07-28T11:29:16;4;4;
62846;PMS5003;49477;35.676;139.586;2023-07-28T11:31:48;3;3;
62846;PMS5003;49477;35.676;139.586;2023-07-28T11:34:17;5;5;
62846;PMS5003;49477;35.676;139.586;2023-07-28T11:36:47;3;3;
62846;PMS5003;49477;35.676;139.586;2023-07-28T11:39:17;5;4;
62846;PMS5003;49477;35.676;139.586;2023-07-28T11:41:48;4;4;
62846;PMS5003;49477;35.676;139.586;2023-07-28T11:44:18;3;3;
62846;PMS5003;49477;35.676;139.586;2023-07-28T11:46:48;6;6;
62846;PMS5003;49477;35.676;139.586;2023-07-28T11:49:18;4;4;
62846;PMS5003;49477;35.676;139.586;2023-07-28T11:51:49;6;4;
62846;PMS5003;49477;35.676;139.586;2023-07-28T11:54:21;6;5;
62846;PMS5003;49477;35.676;139.586;2023-07-28T11:56:53;4;4;
62846;PMS5003;49477;35.676;139.586;2023-07-28T11:59:24;3;3;
62846;PMS5003;49477;35.676;139.586;2023-07-28T12:01:55;4;3;
62846;PMS5003;49477;35.676;139.586;2023-07-28T12:04:26;4;3;
62846;PMS5003;49477;35.676;139.586;2023-07-28T12:07:01;6;5;
62846;PMS5003;49477;35.676;139.586;2023-07-28T12:09:32;4;4;
62846;PMS5003;49477;35.676;139.586;2023-07-28T12:12:15;4;4;
62846;PMS5003;49477;35.676;139.586;2023-07-28T12:14:45;4;4;
62846;PMS5003;49477;35.676;139.586;2023-07-28T12:17:16;6;5;
62846;PMS5003;49477;35.676;139.586;2023-07-28T12:20:03;2;2;
62846;PMS5003;49477;35.676;139.586;2023-07-28T12:22:34;4;4;
62846;PMS5003;49477;35.676;139.586;2023-07-28T12:25:04;4;4;
62846;PMS5003;49477;35.676;139.586;2023-07-28T12:27:34;4;4;
62846;PMS5003;49477;35.676;139.586;2023-07-28T12:30:04;4;4;
62846;PMS5003;49477;35.676;139.586;2023-07-28T12:32:38;4;4;
62846;PMS5003;49477;35.676;139.586;2023-07-28T12:35:08;6;6;
62846;PMS5003;49477;35.676;139.586;2023-07-28T12:37:37;4;4;
62846;PMS5003;49477;35.676;139.586;2023-07-28T12:40:07;5;5;
62846;PMS5003;49477;35.676;139.586;2023-07-28T12:42:38;6;6;
62846;PMS5003;49477;35.676;139.586;2023-07-28T12:45:08;4;4;
62846;PMS5003;49477;35.676;139.586;2023-07-28T12:47:38;4;4;
62846;PMS5003;49477;35.676;139.586;2023-07-28T12:50:08;3;3;
62846;PMS5003;49477;35.676;139.586;2023-07-28T12:52:38;4;4;
62846;PMS5003;49477;35.676;139.586;2023-07-28T12:55:08;4;4;
62846;PMS5003;49477;35.676;139.586;2023-07-28T12:57:37;4;4;
62846;PMS5003;49477;35.676;139.586;2023-07-28T13:00:07;4;4;
62846;PMS5003;49477;35.676;139.586;2023-07-28T13:02:38;5;5;
62846;PMS5003;49477;35.676;139.586;2023-07-28T13:05:08;3;3;
62846;PMS5003;49477;35.676;139.586;2023-07-28T13:07:43;4;4;
62846;PMS5003;49477;35.676;139.586;2023-07-28T13:10:13;4;4;
62846;PMS5003;49477;35.676;139.586;2023-07-28T13:12:42;7;5;
62846;PMS5003;49477;35.676;139.586;2023-07-28T13:15:12;5;4;
62846;PMS5003;49477;35.676;139.586;2023-07-28T13:17:42;6;6;
62846;PMS5003;49477;35.676;139.586;2023-07-28T13:20:18;7;7;
62846;PMS5003;49477;35.676;139.586;2023-07-28T13:22:48;7;6;
62846;PMS5003;49477;35.676;139.586;2023-07-28T13:25:17;7;7;
62846;PMS5003;49477;35.676;139.586;2023-07-28T13:27:47;6;6;
62846;PMS5003;49477;35.676;139.586;2023-07-28T13:30:16;6;5;
62846;PMS5003;49477;35.676;139.586;2023-07-28T13:32:46;3;3;
62846;PMS5003;49477;35.676;139.586;2023-07-28T13:35:15;7;5;
62846;PMS5003;49477;35.676;139.586;2023-07-28T13:37:45;8;8;
62846;PMS5003;49477;35.676;139.586;2023-07-28T13:40:14;6;6;
62846;PMS5003;49477;35.676;139.586;2023-07-28T13:42:43;6;6;
62846;PMS5003;49477;35.676;139.586;2023-07-28T13:45:13;6;6;
62846;PMS5003;49477;35.676;139.586;2023-07-28T13:47:42;6;6;
62846;PMS5003;49477;35.676;139.586;2023-07-28T13:50:12;6;6;
62846;PMS5003;49477;35.676;139.586;2023-07-28T13:52:41;12;11;
62846;PMS5003;49477;35.676;139.586;2023-07-28T13:55:11;6;6;
62846;PMS5003;49477;35.676;139.586;2023-07-28T13:57:40;8;8;
62846;PMS5003;49477;35.676;139.586;2023-07-28T14:00:10;8;6;
62846;PMS5003;49477;35.676;139.586;2023-07-28T14:02:40;7;7;
62846;PMS5003;49477;35.676;139.586;2023-07-28T14:05:09;5;5;
62846;PMS5003;49477;35.676;139.586;2023-07-28T14:07:39;7;7;
62846;PMS5003;49477;35.676;139.586;2023-07-28T14:10:08;6;6;
62846;PMS5003;49477;35.676;139.586;2023-07-28T14:12:38;6;6;
62846;PMS5003;49477;35.676;139.586;2023-07-28T14:15:08;6;6;
62846;PMS5003;49477;35.676;139.586;2023-07-28T14:17:37;6;6;
62846;PMS5003;49477;35.676;139.586;2023-07-28T14:20:07;5;5;
62846;PMS5003;49477;35.676;139.586;2023-07-28T14:22:38;4;4;
62846;PMS5003;49477;35.676;139.586;2023-07-28T14:25:07;6;6;
62846;PMS5003;49477;35.676;139.586;2023-07-28T14:27:37;5;5;
62846;PMS5003;49477;35.676;139.586;2023-07-28T14:30:07;4;4;
62846;PMS5003;49477;35.676;139.586;2023-07-28T14:32:36;6;6;
62846;PMS5003;49477;35.676;139.586;2023-07-28T14:35:06;4;4;
62846;PMS5003;49477;35.676;139.586;2023-07-28T14:37:42;4;4;
62846;PMS5003;49477;35.676;139.586;2023-07-28T14:40:12;3;3;
62846;PMS5003;49477;35.676;139.586;2023-07-28T14:42:41;4;3;
62846;PMS5003;49477;35.676;139.586;2023-07-28T14:45:11;5;5;
62846;PMS5003;49477;35.676;139.586;2023-07-28T14:47:40;4;4;
62846;PMS5003;49477;35.676;139.586;2023-07-28T14:50:10;3;3;
62846;PMS5003;49477;35.676;139.586;2023-07-28T14:52:39;3;3;
62846;PMS5003;49477;35.676;139.586;2023-07-28T14:55:09;5;5;
62846;PMS5003;49477;35.676;139.586;2023-07-28T14:57:39;4;4;
62846;PMS5003;49477;35.676;139.586;2023-07-28T15:00:08;6;6;
62846;PMS5003;49477;35.676;139.586;2023-07-28T15:02:38;5;5;
62846;PMS5003;49477;35.676;139.586;2023-07-28T15:05:08;7;5;
62846;PMS5003;49477;35.676;139.586;2023-07-28T15:07:37;7;6;
62846;PMS5003;49477;35.676;139.586;2023-07-28T15:10:07;5;4;
62846;PMS5003;49477;35.676;139.586;2023-07-28T15:12:36;4;4;
62846;PMS5003;49477;35.676;139.586;2023-07-28T15:15:06;5;5;
62846;PMS5003;49477;35.676;139.586;2023-07-28T15:17:36;4;4;
62846;PMS5003;49477;35.676;139.586;2023-07-28T15:20:06;5;5;
62846;PMS5003;49477;35.676;139.586;2023-07-28T15:22:36;4;4;
62846;PMS5003;49477;35.676;139.586;2023-07-28T15:25:06;3;3;
62846;PMS5003;49477;35.676;139.586;2023-07-28T15:27:35;5;5;
62846;PMS5003;49477;35.676;139.586;2023-07-28T15:30:05;6;6;
62846;PMS5003;49477;35.676;139.586;2023-07-28T15:32:35;4;4;
62846;PMS5003;49477;35.676;139.586;2023-07-28T15:35:05;5;5;
62846;PMS5003;49477;35.676;139.586;2023-07-28T15:37:35;5;5;
62846;PMS5003;49477;35.676;139.586;2023-07-28T15:40:05;4;4;
62846;PMS5003;49477;35.676;139.586;2023-07-28T15:42:35;5;4;
62846;PMS5003;49477;35.676;139.586;2023-07-28T15:45:05;5;5;
62846;PMS5003;49477;35.676;139.586;2023-07-28T15:47:35;6;6;
62846;PMS5003;49477;35.676;139.586;2023-07-28T15:50:04;5;5;
62846;PMS5003;49477;35.676;139.586;2023-07-28T15:52:34;5;5;
62846;PMS5003;49477;35.676;139.586;2023-07-28T15:55:04;5;5;
62846;PMS5003;49477;35.676;139.586;2023-07-28T15:57:35;6;6;
62846;PMS5003;49477;35.676;139.586;2023-07-28T16:00:06;5;5;
62846;PMS5003;49477;35.676;139.586;2023-07-28T16:02:36;5;5;
62846;PMS5003;49477;35.676;139.586;2023-07-28T16:05:06;4;4;
62846;PMS5003;49477;35.676;139.586;2023-07-28T16:07:35;5;5;
62846;PMS5003;49477;35.676;139.586;2023-07-28T16:10:05;6;6;
62846;PMS5003;49477;35.676;139.586;2023-07-28T16:12:35;5;5;
62846;PMS5003;49477;35.676;139.586;2023-07-28T16:15:04;6;6;
62846;PMS5003;49477;35.676;139.586;2023-07-28T16:17:35;5;5;
62846;PMS5003;49477;35.676;139.586;2023-07-28T16:20:04;5;3;
62846;PMS5003;49477;35.676;139.586;2023-07-28T16:22:34;5;5;
62846;PMS5003;49477;35.676;139.586;2023-07-28T16:25:04;5;5;
62846;PMS5003;49477;35.676;139.586;2023-07-28T16:27:33;7;5;
62846;PMS5003;49477;35.676;139.586;2023-07-28T16:30:04;5;5;